Weather at Hartsfield Jackson Atlanta International Airport

Public forecast

Using degrees Fahrenheit for public forecast. Weather courtesy of forecast.io.

Current aviation weather report (METAR) for Hartsfield Jackson Atlanta International Airport

Retrieved 2021/10/23 02:52 UTC (51 minutes ago):

KATL 230252Z 32007KT 10SM CLR 16/11 A3004 RMK AO2 SLP168 T01560111 51008

Aviation forecast (TAF) for Hartsfield Jackson Atlanta International Airport

Retrieved 2021-10-23 00:22 UTC (3 hours ago):

TAF KATL 222320Z 2300/2406 31006KT P6SM SKC FM232100 28003KT P6SM SKC FM240200 VRB03KT P6SM SKC